Time;durP1;ratioP1;P1;durP2;ratioP2;P2;SDS_P1;SDS_P2;PMS_P1;PMS_P2;Temp;Humidity;BMP_temperature;BMP_pressure;BME280_temperature;BME280_humidity;BME280_pressure;Samples;Min_cycle;Max_cycle;Signal;HPM_P1;HPM_P2
2022/11/15 00:01:51;;;;;;;1.40;0.60;;;;;;;-142.37;100.00;59669.53;5034793;28;20029;-69
2022/11/15 00:04:16;;;;;;;1.38;0.80;;;;;;;-142.37;100.00;59669.53;5033386;28;20552;-69
2022/11/15 00:06:42;;;;;;;0.82;0.65;;;;;;;-142.37;100.00;59669.53;5034579;28;20393;-68
2022/11/15 00:09:08;;;;;;;1.20;0.75;;;;;;;-142.37;100.00;59669.53;5033139;28;20088;-68
2022/11/15 00:11:33;;;;;;;0.80;0.70;;;;;;;-142.37;100.00;59669.53;5033003;28;20068;-67
2022/11/15 00:14:02;;;;;;;2.03;0.90;;;;;;;-142.37;100.00;59669.53;5034307;28;20056;-69
2022/11/15 00:16:27;;;;;;;2.00;0.80;;;;;;;-142.37;100.00;59669.53;5034617;28;20037;-68
2022/11/15 00:18:53;;;;;;;2.20;0.90;;;;;;;-142.37;100.00;59669.53;5033194;28;20033;-67
2022/11/15 00:21:19;;;;;;;1.30;0.85;;;;;;;-142.37;100.00;59669.53;5032817;28;20359;-69
2022/11/15 00:23:45;;;;;;;1.15;0.70;;;;;;;-142.37;100.00;59669.53;5034185;28;20057;-69
2022/11/15 00:26:13;;;;;;;1.40;1.02;;;;;;;-142.37;100.00;59669.53;5032581;28;20077;-68
2022/11/15 00:28:39;;;;;;;1.67;1.00;;;;;;;-142.37;100.00;59669.53;5034373;28;20026;-68
2022/11/15 00:31:08;;;;;;;0.55;0.50;;;;;;;-142.37;100.00;59669.53;5032711;28;20025;-69
2022/11/15 00:33:34;;;;;;;1.02;0.70;;;;;;;-142.37;100.00;59669.53;5034039;28;20032;-68
2022/11/15 00:36:05;;;;;;;1.27;0.70;;;;;;;-142.37;100.00;59669.53;5034157;28;20033;-68
2022/11/15 00:38:32;;;;;;;1.35;0.60;;;;;;;-142.37;100.00;59669.53;5032519;28;20033;-69
2022/11/15 00:40:58;;;;;;;1.13;0.70;;;;;;;-142.37;100.00;59669.53;5032584;28;20028;-69
2022/11/15 00:43:24;;;;;;;0.90;0.32;;;;;;;-142.37;100.00;59669.53;5031864;28;20021;-68
2022/11/15 00:45:49;;;;;;;0.90;0.40;;;;;;;-142.37;100.00;59669.53;5033767;28;20025;-68
2022/11/15 00:48:15;;;;;;;1.85;0.60;;;;;;;-142.37;100.00;59669.53;5033710;28;20025;-69
2022/11/15 00:50:40;;;;;;;0.60;0.52;;;;;;;-142.37;100.00;59669.53;5033655;28;20051;-69
2022/11/15 00:53:06;;;;;;;0.57;0.57;;;;;;;-142.37;100.00;59669.53;5033480;28;20034;-69
2022/11/15 00:55:32;;;;;;;0.77;0.75;;;;;;;-142.37;100.00;59669.53;5034184;28;20029;-69
2022/11/15 00:57:57;;;;;;;0.75;0.70;;;;;;;-142.37;100.00;59669.53;5033540;28;20501;-68
2022/11/15 01:00:23;;;;;;;0.65;0.60;;;;;;;-142.37;100.00;59669.53;5032307;28;20092;-68
2022/11/15 01:02:48;;;;;;;0.80;0.80;;;;;;;-142.37;100.00;59669.53;5032212;28;20029;-68
2022/11/15 01:05:14;;;;;;;1.20;0.88;;;;;;;-142.37;100.00;59669.53;5033417;28;20030;-68
2022/11/15 01:07:39;;;;;;;1.52;0.93;;;;;;;-142.37;100.00;59669.53;5031913;28;20060;-69
2022/11/15 01:10:06;;;;;;;1.13;0.85;;;;;;;-142.37;100.00;59669.53;5033445;28;20029;-68
2022/11/15 01:12:31;;;;;;;0.68;0.60;;;;;;;-142.37;100.00;59669.53;5033907;28;20084;-70
2022/11/15 01:14:57;;;;;;;1.40;1.05;;;;;;;-142.37;100.00;59669.53;5033180;28;20483;-68
2022/11/15 01:17:23;;;;;;;0.63;0.63;;;;;;;-142.37;100.00;59669.53;5032129;28;20036;-69
2022/11/15 01:19:49;;;;;;;0.60;0.50;;;;;;;-142.37;100.00;59669.53;5033050;28;20112;-69
2022/11/15 01:22:14;;;;;;;0.98;0.80;;;;;;;-142.37;100.00;59669.53;5032961;28;20492;-68
2022/11/15 01:24:40;;;;;;;1.05;0.85;;;;;;;-142.37;100.00;59669.53;5033114;28;20391;-69
2022/11/15 01:27:06;;;;;;;2.85;0.88;;;;;;;-142.37;100.00;59669.53;5032829;28;20364;-71
2022/11/15 01:29:32;;;;;;;1.60;1.33;;;;;;;-142.37;100.00;59669.53;5033144;28;20036;-68
2022/11/15 01:31:58;;;;;;;1.98;1.08;;;;;;;-142.37;100.00;59669.53;5033244;28;20025;-69
2022/11/15 01:34:23;;;;;;;2.08;0.95;;;;;;;-142.37;100.00;59669.53;5032833;28;20025;-70
2022/11/15 01:36:49;;;;;;;2.25;1.10;;;;;;;-142.37;100.00;59669.53;5032648;28;20040;-69
2022/11/15 01:39:15;;;;;;;3.03;1.10;;;;;;;-142.37;100.00;59669.53;5032873;28;20028;-69
2022/11/15 01:41:41;;;;;;;1.42;1.02;;;;;;;-142.37;100.00;59669.53;5031663;28;20162;-69
2022/11/15 01:44:34;;;;;;;1.58;1.08;;;;;;;-142.37;100.00;59669.53;5032665;28;20404;-69
2022/11/15 01:47:03;;;;;;;2.83;1.10;;;;;;;-142.37;100.00;59669.53;5032761;28;20474;-68
2022/11/15 01:49:32;;;;;;;4.70;1.63;;;;;;;-142.37;100.00;59669.53;5032654;28;20565;-68
2022/11/15 01:51:59;;;;;;;2.15;1.30;;;;;;;-142.37;100.00;59669.53;5032788;28;20038;-70
2022/11/15 01:54:25;;;;;;;1.67;0.60;;;;;;;-142.37;100.00;59669.53;5031519;28;20035;-69
2022/11/15 01:56:56;;;;;;;2.05;0.70;;;;;;;-142.37;100.00;59669.53;5032531;28;20029;-67
2022/11/15 01:59:22;;;;;;;2.88;0.88;;;;;;;-142.37;100.00;59669.53;5032587;28;20529;-69
2022/11/15 02:01:48;;;;;;;1.35;0.63;;;;;;;-142.37;100.00;59669.53;5032476;28;20029;-68
2022/11/15 02:04:23;;;;;;;1.48;0.50;;;;;;;-142.37;100.00;59669.53;5030971;28;20087;-70
2022/11/15 02:06:49;;;;;;;2.15;0.30;;;;;;;-142.37;100.00;59669.53;5032577;28;20117;-70
2022/11/15 02:09:16;;;;;;;2.67;0.40;;;;;;;-142.37;100.00;59669.53;5032194;28;20108;-68
2022/11/15 02:11:43;;;;;;;0.55;0.47;;;;;;;-142.37;100.00;59669.53;5032374;28;20037;-70
2022/11/15 02:14:11;;;;;;;0.63;0.60;;;;;;;-142.37;100.00;59669.53;5032156;28;20064;-69
2022/11/15 02:16:58;;;;;;;1.05;0.68;;;;;;;-142.37;100.00;59669.53;5031932;28;20033;-68
2022/11/15 02:19:32;;;;;;;1.33;0.80;;;;;;;-142.37;100.00;59669.53;5032166;28;20198;-68
2022/11/15 02:22:26;;;;;;;1.10;0.80;;;;;;;-142.37;100.00;59669.53;5030986;28;20576;-67
2022/11/15 02:25:05;;;;;;;2.58;0.95;;;;;;;-142.37;100.00;59669.53;5031841;28;20049;-68
2022/11/15 02:27:46;;;;;;;1.60;1.50;;;;;;;-142.37;100.00;59669.53;5032168;28;20041;-68
2022/11/15 02:30:14;;;;;;;2.40;1.80;;;;;;;-142.37;100.00;59669.53;5031071;28;20379;-68
2022/11/15 02:33:01;;;;;;;1.90;1.58;;;;;;;-142.37;100.00;59669.53;5032192;28;20033;-68
2022/11/15 02:35:42;;;;;;;1.80;1.55;;;;;;;-142.37;100.00;59669.53;5032027;28;20074;-67
2022/11/15 02:38:19;;;;;;;2.03;1.40;;;;;;;-142.37;100.00;59669.53;5032203;28;20037;-68
2022/11/15 02:40:59;;;;;;;1.98;1.48;;;;;;;-142.37;100.00;59669.53;5032131;28;20037;-70
2022/11/15 02:43:56;;;;;;;2.55;1.83;;;;;;;-142.37;100.00;59669.53;5032088;28;20033;-68
2022/11/15 02:47:12;;;;;;;1.65;1.40;;;;;;;-142.37;100.00;59669.53;5032172;28;20029;-68
2022/11/15 02:49:41;;;;;;;2.83;1.80;;;;;;;-142.37;100.00;59669.53;5032010;28;20026;-67
2022/11/15 02:52:07;;;;;;;3.30;2.00;;;;;;;-142.37;100.00;59669.53;5030760;28;20034;-68
2022/11/15 02:54:34;;;;;;;1.80;1.58;;;;;;;-142.37;100.00;59669.53;5032034;28;20029;-68
2022/11/15 02:57:04;;;;;;;2.30;1.98;;;;;;;-142.37;100.00;59669.53;5031625;28;20398;-67
2022/11/15 03:00:05;;;;;;;2.85;1.73;;;;;;;-142.37;100.00;59669.53;5031868;28;20036;-68
2022/11/15 03:03:06;;;;;;;3.58;1.88;;;;;;;-142.37;100.00;59669.53;5022616;28;20038;-68
2022/11/15 03:05:42;;;;;;;2.75;2.17;;;;;;;-142.37;100.00;59669.53;5030671;28;20029;-68
2022/11/15 03:08:15;;;;;;;3.22;2.00;;;;;;;-142.37;100.00;59669.53;5035901;28;20032;-66
2022/11/15 03:10:56;;;;;;;3.03;2.28;;;;;;;-142.37;100.00;59669.53;5035840;28;20489;-68
2022/11/15 03:13:32;;;;;;;1.33;1.20;;;;;;;-142.37;100.00;59669.53;5035632;28;20025;-68
2022/11/15 03:16:16;;;;;;;1.73;1.38;;;;;;;-142.37;100.00;59669.53;5035552;28;20032;-68
2022/11/15 03:18:47;;;;;;;1.93;1.20;;;;;;;-142.37;100.00;59669.53;5034083;28;20116;-68
2022/11/15 03:21:15;;;;;;;1.63;1.20;;;;;;;-142.37;100.00;59669.53;5035077;28;20528;-69
2022/11/15 03:23:41;;;;;;;1.70;1.20;;;;;;;-142.37;100.00;59669.53;5035541;28;20053;-70
2022/11/15 03:26:11;;;;;;;1.50;1.00;;;;;;;-142.37;100.00;59669.53;5035427;28;20508;-68
2022/11/15 03:29:01;;;;;;;1.73;1.50;;;;;;;-142.37;100.00;59669.53;5035188;28;20045;-69
2022/11/15 03:31:48;;;;;;;1.20;1.00;;;;;;;-142.37;100.00;59669.53;5035326;28;20060;-69
2022/11/15 03:34:20;;;;;;;1.08;0.85;;;;;;;-142.37;100.00;59669.53;5035352;28;20484;-68
2022/11/15 03:36:48;;;;;;;0.65;0.57;;;;;;;-142.37;100.00;59669.53;5035126;28;20025;-68
2022/11/15 03:39:14;;;;;;;1.00;0.63;;;;;;;-142.37;100.00;59669.53;5034881;28;20048;-69
2022/11/15 03:41:46;;;;;;;2.25;1.05;;;;;;;-142.37;100.00;59669.53;5034922;28;20105;-69
2022/11/15 03:44:39;;;;;;;1.35;1.20;;;;;;;-142.37;100.00;59669.53;5034857;28;20033;-68
2022/11/15 03:47:16;;;;;;;2.95;1.42;;;;;;;-142.37;100.00;59669.53;5033500;28;20036;-69
2022/11/15 03:49:55;;;;;;;3.03;1.00;;;;;;;-142.37;100.00;59669.53;5035209;28;20385;-68
2022/11/15 03:52:22;;;;;;;2.33;0.85;;;;;;;-142.37;100.00;59669.53;5034855;28;20026;-69
2022/11/15 03:54:56;;;;;;;1.15;1.05;;;;;;;-142.37;100.00;59669.53;5035208;28;20417;-69
2022/11/15 03:57:22;;;;;;;1.67;1.23;;;;;;;-142.37;100.00;59669.53;5034803;28;20033;-67
2022/11/15 03:59:48;;;;;;;1.60;1.42;;;;;;;-142.37;100.00;59669.53;5033435;28;20371;-69
2022/11/15 04:02:14;;;;;;;1.70;1.40;;;;;;;-142.37;100.00;59669.53;5033359;28;20021;-68
2022/11/15 04:04:40;;;;;;;1.90;1.48;;;;;;;-142.37;100.00;59669.53;5034761;28;20029;-70
2022/11/15 04:07:06;;;;;;;3.70;2.00;;;;;;;-142.37;100.00;59669.53;5034507;28;20029;-70
2022/11/15 04:09:31;;;;;;;3.33;2.00;;;;;;;-142.37;100.00;59669.53;5034943;28;20021;-70
2022/11/15 04:11:57;;;;;;;1.73;1.35;;;;;;;-142.37;100.00;59669.53;5033030;28;20500;-69
2022/11/15 04:14:22;;;;;;;2.17;1.45;;;;;;;-142.37;100.00;59669.53;5034305;28;20036;-70
2022/11/15 04:16:48;;;;;;;2.38;1.60;;;;;;;-142.37;100.00;59669.53;5034768;28;20034;-68
2022/11/15 04:24:41;;;;;;;3.60;2.03;;;;;;;-142.37;100.00;59669.53;5033920;28;20072;-69
2022/11/15 04:27:07;;;;;;;2.60;1.40;;;;;;;-142.37;100.00;59669.53;5033557;28;20474;-69
2022/11/15 04:29:35;;;;;;;1.52;1.13;;;;;;;-142.37;100.00;59669.53;5033990;28;20488;-70
2022/11/15 04:32:05;;;;;;;2.00;1.48;;;;;;;-142.37;100.00;59669.53;5032651;28;20379;-70
2022/11/15 04:34:31;;;;;;;1.90;1.40;;;;;;;-142.37;100.00;59669.53;5034062;28;20402;-68
2022/11/15 04:37:11;;;;;;;1.42;1.17;;;;;;;-142.37;100.00;59669.53;5034007;28;20059;-67
2022/11/15 04:39:38;;;;;;;2.55;1.13;;;;;;;-142.37;100.00;59669.53;5033822;28;20033;-67
2022/11/15 04:42:04;;;;;;;1.38;1.20;;;;;;;-142.37;100.00;59669.53;5033770;28;20069;-70
2022/11/15 04:44:29;;;;;;;2.40;1.38;;;;;;;-142.37;100.00;59669.53;5033805;28;20064;-69
2022/11/15 04:46:55;;;;;;;1.70;1.27;;;;;;;-142.37;100.00;59669.53;5033802;28;20029;-71
2022/11/15 04:49:20;;;;;;;2.40;1.50;;;;;;;-142.37;100.00;59669.53;5034157;28;20470;-70
2022/11/15 04:51:46;;;;;;;2.45;1.50;;;;;;;-142.37;100.00;59669.53;5032252;28;20041;-70
2022/11/15 04:54:11;;;;;;;1.80;1.50;;;;;;;-142.37;100.00;59669.53;5065480;28;20025;-70
2022/11/15 04:56:37;;;;;;;3.08;2.17;;;;;;;-142.37;100.00;59669.53;5033404;28;20032;-70
2022/11/15 04:59:03;;;;;;;2.33;1.80;;;;;;;-142.37;100.00;59669.53;5033239;28;20052;-69
2022/11/15 05:01:28;;;;;;;2.80;1.50;;;;;;;-142.37;100.00;59669.53;5033732;28;20032;-70
2022/11/15 05:06:38;;;;;;;3.13;1.63;;;;;;;-142.37;100.00;59669.53;5033392;28;20036;-71
2022/11/15 05:09:04;;;;;;;3.63;1.83;;;;;;;-142.37;100.00;59669.53;5033460;28;20398;-71
2022/11/15 05:11:30;;;;;;;3.00;1.60;;;;;;;-142.37;100.00;59669.53;5033325;28;20109;-71
2022/11/15 05:13:56;;;;;;;4.07;1.60;;;;;;;-142.37;100.00;59669.53;5033486;28;20030;-69
2022/11/15 05:16:21;;;;;;;1.65;1.40;;;;;;;-142.37;100.00;59669.53;5033673;28;20029;-70
2022/11/15 05:18:51;;;;;;;10.40;2.28;;;;;;;-142.37;100.00;59669.53;5031859;28;20379;-71
2022/11/15 05:21:16;;;;;;;6.65;2.00;;;;;;;-142.37;100.00;59669.53;5031252;28;20037;-71
2022/11/15 05:23:42;;;;;;;4.20;1.92;;;;;;;-142.37;100.00;59669.53;5032936;28;20363;-72
2022/11/15 05:26:08;;;;;;;5.50;2.03;;;;;;;-142.37;100.00;59669.53;5032702;28;20045;-73
2022/11/15 05:28:34;;;;;;;3.70;1.90;;;;;;;-142.37;100.00;59669.53;5032841;28;20499;-71
2022/11/15 05:31:08;;;;;;;4.32;1.77;;;;;;;-142.37;100.00;59669.53;5032199;28;20105;-72
2022/11/15 05:33:35;;;;;;;3.13;1.50;;;;;;;-142.37;100.00;59669.53;5032950;28;20043;-71
2022/11/15 05:36:33;;;;;;;2.95;1.35;;;;;;;-142.37;100.00;59669.53;5031180;28;20067;-71
2022/11/15 05:38:58;;;;;;;3.33;1.63;;;;;;;-142.37;100.00;59669.53;5032479;28;20048;-69
2022/11/15 05:41:35;;;;;;;3.50;1.58;;;;;;;-142.37;100.00;59669.53;5032856;28;20033;-71
2022/11/15 05:44:05;;;;;;;5.20;1.35;;;;;;;-142.37;100.00;59669.53;5031435;28;20021;-71
2022/11/15 05:46:33;;;;;;;5.90;1.77;;;;;;;-142.37;100.00;59669.53;5030720;28;20032;-69
2022/11/15 05:48:59;;;;;;;5.45;1.33;;;;;;;-142.37;100.00;59669.53;5030682;28;20079;-71
2022/11/15 05:51:27;;;;;;;3.97;1.35;;;;;;;-142.37;100.00;59669.53;5031847;28;20059;-71
2022/11/15 05:53:56;;;;;;;2.78;1.65;;;;;;;-142.37;100.00;59669.53;5030681;28;20048;-72
2022/11/15 05:56:22;;;;;;;2.35;1.02;;;;;;;-142.37;100.00;59669.53;5032406;28;20486;-71
2022/11/15 05:58:48;;;;;;;4.75;1.75;;;;;;;-142.37;100.00;59669.53;5030763;28;20124;-72
2022/11/15 06:01:14;;;;;;;2.47;1.55;;;;;;;-142.37;100.00;59669.53;5031700;28;20030;-71
2022/11/15 06:03:39;;;;;;;3.90;0.75;;;;;;;-142.37;100.00;59669.53;5030684;28;20048;-68
2022/11/15 06:06:06;;;;;;;5.32;1.52;;;;;;;-142.37;100.00;59669.53;5032211;28;20045;-72
2022/11/15 06:08:32;;;;;;;5.78;1.40;;;;;;;-142.37;100.00;59669.53;5031882;28;20030;-72
2022/11/15 06:11:03;;;;;;;7.88;1.20;;;;;;;-142.37;100.00;59669.53;5030579;28;20029;-71
2022/11/15 06:13:29;;;;;;;6.53;1.25;;;;;;;-142.37;100.00;59669.53;5031610;28;20112;-71
2022/11/15 06:15:56;;;;;;;1.80;0.82;;;;;;;-142.37;100.00;59669.53;5032009;28;20447;-70
2022/11/15 06:18:22;;;;;;;3.63;1.70;;;;;;;-142.37;100.00;59669.53;5031971;28;20120;-73
2022/11/15 06:20:47;;;;;;;2.95;1.15;;;;;;;-142.37;100.00;59669.53;5030141;28;20112;-71
2022/11/15 06:23:13;;;;;;;4.00;1.17;;;;;;;-142.37;100.00;59669.53;5031129;28;20041;-71
2022/11/15 06:25:38;;;;;;;2.63;0.77;;;;;;;-142.37;100.00;59669.53;5031428;28;20049;-70
2022/11/15 06:28:04;;;;;;;3.00;0.80;;;;;;;-142.37;100.00;59669.53;5030326;28;20079;-71
2022/11/15 06:30:29;;;;;;;7.43;1.13;;;;;;;-142.37;100.00;59669.53;5031149;28;20336;-73
2022/11/15 06:33:01;;;;;;;5.22;0.93;;;;;;;-142.37;100.00;59669.53;5028871;28;20064;-72
2022/11/15 06:35:27;;;;;;;2.15;0.80;;;;;;;-142.37;100.00;59669.53;5031461;28;20034;-74
2022/11/15 06:37:53;;;;;;;1.15;0.68;;;;;;;-142.37;100.00;59669.53;5029569;28;20462;-70
2022/11/15 06:40:18;;;;;;;5.03;0.60;;;;;;;-142.37;100.00;59669.53;5031604;28;20167;-70
2022/11/15 06:42:44;;;;;;;2.35;0.68;;;;;;;-142.37;100.00;59669.53;5035117;28;20025;-72
2022/11/15 06:45:09;;;;;;;4.55;0.70;;;;;;;-142.37;100.00;59669.53;5035458;28;20102;-71
2022/11/15 06:47:35;;;;;;;5.13;0.93;;;;;;;-142.37;100.00;59669.53;5034735;28;20037;-72
2022/11/15 06:50:01;;;;;;;5.05;0.68;;;;;;;-142.37;100.00;59669.53;5035617;28;20026;-70
2022/11/15 06:52:26;;;;;;;2.53;0.40;;;;;;;-142.37;100.00;59669.53;5035227;28;20475;-71
2022/11/15 06:54:52;;;;;;;6.28;0.57;;;;;;;-142.37;100.00;59669.53;5034984;28;20034;-73
2022/11/15 06:57:17;;;;;;;2.88;0.90;;;;;;;-142.37;100.00;59669.53;5033127;28;20398;-72
2022/11/15 06:59:43;;;;;;;2.50;0.93;;;;;;;-142.37;100.00;59669.53;5033645;28;20029;-73
2022/11/15 07:02:13;;;;;;;4.07;1.02;;;;;;;-142.37;100.00;59669.53;5033318;28;20037;-70
2022/11/15 07:04:40;;;;;;;8.63;1.52;;;;;;;-142.37;100.00;59669.53;5034447;28;20175;-71
2022/11/15 07:07:06;;;;;;;3.13;0.80;;;;;;;-142.37;100.00;59669.53;5033313;28;20029;-72
2022/11/15 07:09:31;;;;;;;5.15;1.50;;;;;;;-142.37;100.00;59669.53;5033326;28;20060;-72
2022/11/15 07:11:57;;;;;;;5.97;0.52;;;;;;;-142.37;100.00;59669.53;5034596;28;20377;-72
2022/11/15 07:14:22;;;;;;;1.88;0.60;;;;;;;-142.37;100.00;59669.53;5034433;28;20069;-72
2022/11/15 07:16:48;;;;;;;6.97;1.58;;;;;;;-142.37;100.00;59669.53;5032623;28;20033;-73
2022/11/15 07:19:13;;;;;;;5.18;0.60;;;;;;;-142.37;100.00;59669.53;5034346;28;20037;-73
2022/11/15 07:21:39;;;;;;;2.60;0.70;;;;;;;-142.37;100.00;59669.53;5034358;28;20048;-73
2022/11/15 07:24:05;;;;;;;1.02;0.52;;;;;;;-142.37;100.00;59669.53;5031901;28;20032;-75
2022/11/15 07:26:31;;;;;;;5.82;0.85;;;;;;;-142.37;100.00;59669.53;5034409;28;20216;-73
2022/11/15 07:28:56;;;;;;;6.60;0.80;;;;;;;-142.37;100.00;59669.53;5032678;28;20033;-72
2022/11/15 07:31:22;;;;;;;3.17;0.90;;;;;;;-142.37;100.00;59669.53;5034353;28;20113;-73
2022/11/15 07:33:48;;;;;;;6.35;0.88;;;;;;;-142.37;100.00;59669.53;5034681;28;20037;-73
2022/11/15 07:36:13;;;;;;;5.65;0.70;;;;;;;-142.37;100.00;59669.53;5033826;28;20188;-71
2022/11/15 07:38:39;;;;;;;9.55;1.40;;;;;;;-142.37;100.00;59669.53;5033327;28;20110;-72
2022/11/15 07:41:06;;;;;;;7.72;0.65;;;;;;;-142.37;100.00;59669.53;5032362;28;20033;-72
2022/11/15 07:43:33;;;;;;;5.35;0.85;;;;;;;-142.37;100.00;59669.53;5033905;28;20497;-72
2022/11/15 07:46:04;;;;;;;6.63;0.75;;;;;;;-142.37;100.00;59669.53;5033798;28;20022;-71
2022/11/15 07:48:30;;;;;;;5.90;1.25;;;;;;;-142.37;100.00;59669.53;5033826;28;20031;-72
2022/11/15 07:50:56;;;;;;;7.72;1.05;;;;;;;-142.37;100.00;59669.53;5033833;28;20053;-72
2022/11/15 07:53:21;;;;;;;6.03;1.30;;;;;;;-142.37;100.00;59669.53;5033459;28;20109;-71
2022/11/15 07:55:47;;;;;;;6.85;0.55;;;;;;;-142.37;100.00;59669.53;5032135;28;20079;-72
2022/11/15 07:58:13;;;;;;;4.10;0.70;;;;;;;-142.37;100.00;59669.53;5032218;28;20124;-70
2022/11/15 08:00:39;;;;;;;4.75;1.10;;;;;;;-142.37;100.00;59669.53;5034057;28;20037;-71
2022/11/15 08:03:13;;;;;;;5.38;1.00;;;;;;;-142.37;100.00;59669.53;5033290;28;20029;-72
2022/11/15 08:05:40;;;;;;;6.07;1.02;;;;;;;-142.37;100.00;59669.53;5034368;28;20037;-70
2022/11/15 08:08:07;;;;;;;4.78;0.65;;;;;;;-142.37;100.00;59669.53;5032367;28;20116;-72
2022/11/15 08:10:33;;;;;;;2.08;0.43;;;;;;;-142.37;100.00;59669.53;5034096;28;20022;-71
2022/11/15 08:13:00;;;;;;;3.15;0.90;;;;;;;-142.37;100.00;59669.53;5032276;28;20555;-70
2022/11/15 08:15:27;;;;;;;3.40;0.68;;;;;;;-142.37;100.00;59669.53;5034215;28;20417;-71
2022/11/15 08:17:57;;;;;;;4.72;1.05;;;;;;;-142.37;100.00;59669.53;5032189;28;20048;-72
2022/11/15 08:20:24;;;;;;;4.07;0.65;;;;;;;-142.37;100.00;59669.53;5033804;28;20041;-70
2022/11/15 08:22:50;;;;;;;5.85;1.17;;;;;;;-142.37;100.00;59669.53;5033884;28;20080;-71
2022/11/15 08:25:16;;;;;;;3.00;0.73;;;;;;;-142.37;100.00;59669.53;5033366;28;20100;-71
2022/11/15 08:27:42;;;;;;;5.97;1.25;;;;;;;-142.37;100.00;59669.53;5033363;28;20033;-70
2022/11/15 08:30:08;;;;;;;1.60;0.50;;;;;;;-142.37;100.00;59669.53;5031911;28;20135;-73
2022/11/15 08:32:34;;;;;;;3.55;1.10;;;;;;;-142.37;100.00;59669.53;5032161;28;20362;-73
2022/11/15 08:34:59;;;;;;;7.10;1.23;;;;;;;-142.37;100.00;59669.53;5033094;28;20031;-72
2022/11/15 08:37:25;;;;;;;3.47;0.60;;;;;;;-142.37;100.00;59669.53;5032960;28;20028;-71
2022/11/15 08:39:50;;;;;;;7.00;0.93;;;;;;;-142.37;100.00;59669.53;5033318;28;20079;-72
2022/11/15 08:42:16;;;;;;;3.63;0.52;;;;;;;-142.37;100.00;59669.53;5031133;28;20028;-70
2022/11/15 08:44:42;;;;;;;8.98;1.00;;;;;;;-142.37;100.00;59669.53;5031681;28;20056;-72
2022/11/15 08:47:11;;;;;;;2.25;0.50;;;;;;;-142.37;100.00;59669.53;5032279;28;20021;-71
2022/11/15 08:49:37;;;;;;;2.35;0.65;;;;;;;-142.37;100.00;59669.53;5032592;28;20109;-72
2022/11/15 08:52:03;;;;;;;1.77;0.60;;;;;;;-142.37;100.00;59669.53;5033206;28;20541;-70
2022/11/15 08:54:29;;;;;;;4.20;0.65;;;;;;;-142.37;100.00;59669.53;5031854;28;20063;-68
2022/11/15 08:56:54;;;;;;;5.88;0.88;;;;;;;-142.37;100.00;59669.53;5032812;28;20136;-69
2022/11/15 08:59:20;;;;;;;2.75;0.73;;;;;;;-142.37;100.00;59669.53;5032799;28;20026;-71
2022/11/15 09:01:46;;;;;;;1.30;0.45;;;;;;;-142.37;100.00;59669.53;5033151;28;20057;-71
2022/11/15 09:04:11;;;;;;;2.35;0.43;;;;;;;-142.37;100.00;59669.53;5031796;28;20057;-71
2022/11/15 09:06:37;;;;;;;3.10;0.40;;;;;;;-142.37;100.00;59669.53;5032725;28;20504;-68
2022/11/15 09:09:03;;;;;;;2.20;0.28;;;;;;;-142.37;100.00;59669.53;5031087;28;20037;-68
2022/11/15 09:11:28;;;;;;;1.92;0.35;;;;;;;-142.37;100.00;59669.53;5031952;28;20021;-70
2022/11/15 09:13:54;;;;;;;5.10;0.80;;;;;;;-142.37;100.00;59669.53;5032658;28;20436;-71
2022/11/15 09:16:20;;;;;;;5.90;1.20;;;;;;;-142.37;100.00;59669.53;5032898;28;20029;-70
2022/11/15 09:18:46;;;;;;;4.20;0.40;;;;;;;-142.37;100.00;59669.53;5032932;28;20090;-72
2022/11/15 09:21:12;;;;;;;3.80;0.90;;;;;;;-142.37;100.00;59669.53;5030808;28;20163;-71
2022/11/15 09:23:38;;;;;;;5.60;0.45;;;;;;;-142.37;100.00;59669.53;5032727;28;20478;-70
2022/11/15 09:26:05;;;;;;;5.55;0.57;;;;;;;-142.37;100.00;59669.53;5031317;28;20056;-72
2022/11/15 09:28:32;;;;;;;3.90;0.40;;;;;;;-142.37;100.00;59669.53;5032951;28;20041;-72
2022/11/15 09:30:59;;;;;;;2.53;0.30;;;;;;;-142.37;100.00;59669.53;5032395;28;20036;-71
2022/11/15 09:33:26;;;;;;;2.47;0.60;;;;;;;-142.37;100.00;59669.53;5032121;28;20463;-71
2022/11/15 09:35:52;;;;;;;5.15;0.57;;;;;;;-142.37;100.00;59669.53;5032289;28;20136;-70
2022/11/15 09:38:17;;;;;;;3.95;0.50;;;;;;;-142.37;100.00;59669.53;5031121;28;20041;-70
2022/11/15 09:40:45;;;;;;;1.25;0.73;;;;;;;-142.37;100.00;59669.53;5032297;28;20504;-67
2022/11/15 09:43:29;;;;;;;4.95;0.40;;;;;;;-142.37;100.00;59669.53;5032352;28;20435;-70
2022/11/15 09:46:06;;;;;;;2.35;0.50;;;;;;;-142.37;100.00;59669.53;5032116;28;20029;-71
2022/11/15 09:48:53;;;;;;;2.90;0.98;;;;;;;-142.37;100.00;59669.53;5032100;28;20398;-70
2022/11/15 09:51:46;;;;;;;3.90;0.40;;;;;;;-142.37;100.00;59669.53;5031431;28;20029;-70
2022/11/15 09:54:36;;;;;;;4.35;0.30;;;;;;;-142.37;100.00;59669.53;5030893;28;20505;-71
2022/11/15 09:57:18;;;;;;;1.60;0.25;;;;;;;-142.37;100.00;59669.53;5063187;28;20026;-70
2022/11/15 09:59:59;;;;;;;0.95;0.28;;;;;;;-142.37;100.00;59669.53;5030814;28;20120;-70
2022/11/15 10:03:08;;;;;;;2.75;0.40;;;;;;;-142.37;100.00;59669.53;5030524;28;20033;-69
2022/11/15 10:05:42;;;;;;;1.48;0.60;;;;;;;-142.37;100.00;59669.53;4990946;28;20515;-68
2022/11/15 10:08:40;;;;;;;1.95;0.38;;;;;;;-142.37;100.00;59669.53;4990535;28;20042;-71
2022/11/15 10:11:28;;;;;;;3.63;0.40;;;;;;;-142.37;100.00;59669.53;5022554;28;20053;-70
2022/11/15 10:13:59;;;;;;;5.15;0.60;;;;;;;-142.37;100.00;59669.53;5031756;28;20032;-70
2022/11/15 10:17:02;;;;;;;1.90;0.30;;;;;;;-142.37;100.00;59669.53;5029889;28;20029;-70
2022/11/15 10:19:35;;;;;;;1.25;0.30;;;;;;;-142.37;100.00;59669.53;5029588;28;20133;-70
2022/11/15 10:22:20;;;;;;;2.33;0.40;;;;;;;-142.37;100.00;59669.53;5028965;28;20029;-72
2022/11/15 10:24:47;;;;;;;8.88;0.40;;;;;;;-142.37;100.00;59669.53;5031248;28;20155;-70
2022/11/15 10:27:16;;;;;;;1.48;0.55;;;;;;;-142.37;100.00;59669.53;5031234;28;20121;-70
2022/11/15 10:29:48;;;;;;;2.53;0.22;;;;;;;-142.37;100.00;59669.53;5031242;28;20045;-71
2022/11/15 10:32:19;;;;;;;4.72;0.57;;;;;;;-142.37;100.00;59669.53;5031129;28;20490;-68
2022/11/15 10:34:45;;;;;;;1.55;0.30;;;;;;;-142.37;100.00;59669.53;5031486;28;20248;-70
2022/11/15 10:37:10;;;;;;;6.43;0.50;;;;;;;-142.37;100.00;59669.53;5030706;28;20069;-70
2022/11/15 10:39:36;;;;;;;1.50;0.30;;;;;;;-142.37;100.00;59669.53;5030451;28;20060;-70
2022/11/15 10:42:25;;;;;;;1.95;0.45;;;;;;;-142.37;100.00;59669.53;5031047;28;20061;-68
2022/11/15 10:44:50;;;;;;;3.08;0.60;;;;;;;-142.37;100.00;59669.53;5030766;28;20036;-71
2022/11/15 10:47:31;;;;;;;2.28;0.52;;;;;;;-142.37;100.00;59669.53;5030741;28;20105;-72
2022/11/15 10:50:00;;;;;;;0.75;0.22;;;;;;;-142.37;100.00;59669.53;5031000;28;20048;-69
2022/11/15 10:52:27;;;;;;;2.67;0.90;;;;;;;-142.37;100.00;59669.53;5030592;28;20021;-69
2022/11/15 10:54:53;;;;;;;1.23;0.43;;;;;;;-142.37;100.00;59669.53;5029533;28;20064;-70
2022/11/15 10:57:22;;;;;;;6.28;0.80;;;;;;;-142.37;100.00;59669.53;5030667;28;20064;-69
2022/11/15 10:59:54;;;;;;;1.88;0.32;;;;;;;-142.37;100.00;59669.53;5029132;28;20061;-69
2022/11/15 11:02:34;;;;;;;5.03;0.82;;;;;;;-142.37;100.00;59669.53;5031033;28;20026;-71
2022/11/15 11:05:00;;;;;;;2.38;0.68;;;;;;;-142.37;100.00;59669.53;5030392;28;20040;-70
2022/11/15 11:07:29;;;;;;;3.00;0.70;;;;;;;-142.37;100.00;59669.53;5029214;28;20436;-71
2022/11/15 11:10:19;;;;;;;2.35;0.50;;;;;;;-142.37;100.00;59669.53;5030557;28;20117;-71
2022/11/15 11:12:44;;;;;;;2.67;0.38;;;;;;;-142.37;100.00;59669.53;5030780;28;20066;-71
2022/11/15 11:15:14;;;;;;;2.63;0.50;;;;;;;-142.37;100.00;59669.53;5030120;28;20024;-69
2022/11/15 11:17:49;;;;;;;1.70;0.43;;;;;;;-142.37;100.00;59669.53;5028909;28;20436;-69
2022/11/15 11:20:41;;;;;;;0.98;0.38;;;;;;;-142.37;100.00;59669.53;5030764;28;20056;-69
2022/11/15 11:23:20;;;;;;;2.72;0.50;;;;;;;-142.37;100.00;59669.53;5029235;28;20077;-71
2022/11/15 11:26:12;;;;;;;5.95;0.80;;;;;;;-142.37;100.00;59669.53;5030298;28;20124;-69
2022/11/15 11:29:06;;;;;;;1.48;0.73;;;;;;;-142.37;100.00;59669.53;5035386;28;20540;-69
2022/11/15 11:31:47;;;;;;;0.50;0.20;;;;;;;-142.37;100.00;59669.53;5037357;28;20120;-69